createdAt,value
2018-07-11T00:02:05.120Z,3.13
2018-07-11T00:04:33.406Z,7.07
2018-07-11T00:07:01.660Z,8.23
2018-07-11T00:09:29.910Z,4.07
2018-07-11T00:11:58.190Z,6.37
2018-07-11T00:14:26.456Z,5.03
2018-07-11T00:17:00.251Z,5.97
2018-07-11T00:19:28.512Z,5.90
2018-07-11T00:21:56.803Z,4.33
2018-07-11T00:24:25.077Z,6.43
2018-07-11T00:26:53.328Z,4.40
2018-07-11T00:29:21.588Z,5.27
2018-07-11T00:31:49.839Z,6.83
2018-07-11T00:34:24.458Z,5.97
2018-07-11T00:36:52.775Z,6.03
2018-07-11T00:39:21.022Z,8.27
2018-07-11T00:41:49.310Z,4.73
2018-07-11T00:44:17.603Z,8.77
2018-07-11T00:46:45.930Z,5.90
2018-07-11T00:49:14.199Z,5.30
2018-07-11T00:51:42.482Z,4.23
2018-07-11T00:54:10.774Z,9.07
2018-07-11T00:56:39.882Z,3.60
2018-07-11T00:59:13.876Z,5.00
2018-07-11T01:01:42.187Z,9.97
2018-07-11T01:04:10.430Z,5.80
2018-07-11T01:06:38.712Z,5.30
2018-07-11T01:09:06.988Z,6.17
2018-07-11T01:11:35.873Z,4.77
2018-07-11T01:14:04.184Z,7.37
2018-07-11T01:16:32.949Z,4.23
2018-07-11T01:19:05.020Z,4.97
2018-07-11T01:21:36.796Z,7.73
2018-07-11T01:24:05.098Z,6.27
2018-07-11T01:26:34.478Z,5.43
2018-07-11T01:29:02.840Z,6.40
2018-07-11T01:31:31.146Z,8.80
2018-07-11T01:33:59.808Z,5.57
2018-07-11T01:36:28.410Z,6.90
2018-07-11T01:38:56.933Z,7.90
2018-07-11T01:41:25.198Z,6.63
2018-07-11T01:43:53.483Z,5.73
2018-07-11T01:46:21.780Z,5.10
2018-07-11T01:48:50.080Z,9.00
2018-07-11T01:51:18.484Z,5.87
2018-07-11T01:53:46.957Z,8.43
2018-07-11T01:56:15.285Z,7.90
2018-07-11T01:58:44.996Z,8.47
2018-07-11T02:01:13.462Z,5.73
2018-07-11T02:03:41.924Z,10.10
2018-07-11T02:06:10.170Z,6.40
2018-07-11T02:08:38.434Z,9.57
2018-07-11T02:11:06.692Z,5.70
2018-07-11T02:13:34.950Z,6.00
2018-07-11T02:16:03.281Z,7.70
2018-07-11T02:18:31.552Z,9.97
2018-07-11T02:21:00.023Z,9.40
2018-07-11T02:23:34.352Z,6.27
2018-07-11T02:26:02.632Z,7.40
2018-07-11T02:28:31.064Z,8.50
2018-07-11T02:30:59.325Z,8.77
2018-07-11T02:33:27.596Z,5.77
2018-07-11T02:35:55.940Z,7.43
2018-07-11T02:38:24.248Z,8.23
2018-07-11T02:40:52.517Z,7.97
2018-07-11T02:43:20.788Z,9.07
2018-07-11T02:45:49.103Z,7.90
2018-07-11T02:48:17.361Z,11.87
2018-07-11T02:50:45.720Z,11.00
2018-07-11T02:53:18.887Z,7.50
2018-07-11T02:55:47.265Z,9.47
2018-07-11T02:58:15.613Z,8.20
2018-07-11T03:00:43.930Z,8.53
2018-07-11T03:03:12.200Z,8.27
2018-07-11T03:05:40.770Z,9.97
2018-07-11T03:08:09.060Z,11.27
2018-07-11T03:10:37.467Z,9.70
2018-07-11T03:13:06.362Z,9.23
2018-07-11T03:15:34.692Z,7.30
2018-07-11T03:18:02.974Z,10.87
2018-07-11T03:20:31.283Z,7.57
2018-07-11T03:22:59.655Z,9.97
2018-07-11T03:25:27.939Z,9.57
2018-07-11T03:27:56.322Z,11.03
2018-07-11T03:30:24.699Z,11.00
2018-07-11T03:32:53.174Z,9.77
2018-07-11T03:35:21.671Z,9.13
2018-07-11T03:37:50.004Z,9.23
2018-07-11T03:40:18.272Z,11.83
2018-07-11T03:42:46.586Z,11.43
2018-07-11T03:45:14.902Z,10.77
2018-07-11T03:47:43.149Z,7.60
2018-07-11T03:50:11.488Z,12.37
2018-07-11T03:52:39.746Z,8.97
2018-07-11T03:55:08.008Z,9.73
2018-07-11T03:57:36.313Z,12.60
2018-07-11T04:00:04.855Z,7.73
2018-07-11T04:02:33.165Z,10.23
2018-07-11T04:05:01.578Z,9.40
2018-07-11T04:07:29.862Z,8.00
2018-07-11T04:09:58.205Z,10.53
2018-07-11T04:12:26.516Z,8.27
2018-07-11T04:14:54.825Z,9.47
2018-07-11T04:17:29.556Z,9.53
2018-07-11T04:19:57.813Z,14.37
2018-07-11T04:22:26.102Z,9.53
2018-07-11T04:24:54.405Z,9.43
2018-07-11T04:27:22.737Z,9.27
2018-07-11T04:29:51.032Z,12.17
2018-07-11T04:32:19.356Z,11.07
2018-07-11T04:34:47.728Z,10.73
2018-07-11T04:37:16.045Z,11.33
2018-07-11T04:39:44.516Z,12.77
2018-07-11T04:42:12.798Z,12.93
2018-07-11T04:44:41.104Z,10.97
2018-07-11T04:47:09.516Z,14.17
2018-07-11T04:49:37.883Z,10.30
2018-07-11T04:52:06.168Z,9.27
2018-07-11T04:54:34.479Z,10.23
2018-07-11T04:57:02.740Z,12.77
2018-07-11T04:59:31.017Z,11.30
2018-07-11T05:01:59.324Z,9.73
2018-07-11T05:04:27.748Z,13.87
2018-07-11T05:06:56.012Z,12.27
2018-07-11T05:09:24.322Z,10.80
2018-07-11T05:11:52.600Z,11.37
2018-07-11T05:14:20.904Z,9.67
2018-07-11T05:16:49.160Z,11.17
2018-07-11T05:19:17.530Z,11.43
2018-07-11T05:21:45.803Z,11.93
2018-07-11T05:24:14.175Z,12.27
2018-07-11T05:26:42.634Z,10.87
2018-07-11T05:29:10.982Z,9.97
2018-07-11T05:31:39.236Z,11.07
2018-07-11T05:34:07.610Z,12.97
2018-07-11T05:36:35.958Z,9.87
2018-07-11T05:39:04.663Z,12.93
2018-07-11T05:41:32.998Z,10.40
2018-07-11T05:44:01.278Z,10.33
2018-07-11T05:46:29.558Z,14.23
2018-07-11T05:48:57.856Z,12.07
2018-07-11T05:51:26.185Z,13.43
2018-07-11T05:53:54.518Z,12.30
2018-07-11T05:56:22.793Z,15.30
2018-07-11T05:58:51.098Z,11.97
2018-07-11T06:01:19.354Z,10.57
2018-07-11T06:03:47.637Z,14.17
2018-07-11T06:06:15.914Z,13.17
2018-07-11T06:08:44.198Z,10.03
2018-07-11T06:11:18.682Z,12.83
2018-07-11T06:13:46.950Z,11.83
2018-07-11T06:16:15.279Z,14.33
2018-07-11T06:18:43.520Z,11.40
2018-07-11T06:21:11.783Z,13.60
2018-07-11T06:23:40.118Z,10.30
2018-07-11T06:26:08.510Z,13.53
2018-07-11T06:28:36.776Z,12.23
2018-07-11T06:31:05.412Z,12.37
2018-07-11T06:33:34.219Z,12.10
2018-07-11T06:36:02.554Z,11.40
2018-07-11T06:38:30.820Z,12.23
2018-07-11T06:41:05.668Z,15.83
2018-07-11T06:43:33.988Z,15.50
2018-07-11T06:46:02.373Z,12.97
2018-07-11T06:48:30.686Z,13.03
2018-07-11T06:50:58.964Z,10.93
2018-07-11T06:53:27.272Z,13.90
2018-07-11T06:55:55.585Z,13.10
2018-07-11T06:58:23.929Z,15.57
2018-07-11T07:00:52.268Z,11.27
2018-07-11T07:03:20.552Z,11.83
2018-07-11T07:05:49.131Z,12.97
2018-07-11T07:08:17.508Z,13.87
2018-07-11T07:10:45.814Z,11.20
2018-07-11T07:13:14.086Z,14.20
2018-07-11T07:15:42.624Z,16.40
2018-07-11T07:18:11.354Z,14.93
2018-07-11T07:20:39.926Z,17.23
2018-07-11T07:23:08.634Z,19.03
2018-07-11T07:25:37.152Z,16.63
2018-07-11T07:28:05.734Z,15.83
2018-07-11T07:30:34.595Z,14.37
2018-07-11T07:33:03.154Z,17.23
2018-07-11T07:35:31.842Z,16.57
2018-07-11T07:38:00.394Z,16.77
2018-07-11T07:40:29.044Z,13.80
2018-07-11T07:42:57.808Z,15.53
2018-07-11T07:45:26.419Z,17.63
2018-07-11T07:47:55.184Z,12.93
2018-07-11T07:50:23.873Z,14.93
2018-07-11T07:52:52.533Z,13.93
2018-07-11T07:55:21.159Z,18.33
2018-07-11T07:57:49.692Z,11.30
2018-07-11T08:00:18.343Z,12.83
2018-07-11T08:02:46.918Z,13.97
2018-07-11T08:05:15.498Z,9.67
2018-07-11T08:07:44.050Z,11.30
2018-07-11T08:10:12.654Z,11.80
2018-07-11T08:12:41.249Z,13.37
2018-07-11T08:15:09.866Z,10.47
2018-07-11T08:17:38.654Z,10.73
2018-07-11T08:20:07.250Z,9.10
2018-07-11T08:23:43.744Z,9.47
2018-07-11T08:26:23.738Z,8.83
2018-07-11T08:31:36.753Z,10.57
2018-07-11T08:34:32.148Z,11.13
2018-07-11T08:37:13.980Z,8.40
2018-07-11T08:39:55.858Z,8.97
2018-07-11T08:42:34.295Z,9.63
2018-07-11T08:45:16.614Z,9.87
2018-07-11T08:48:09.853Z,8.13
2018-07-11T08:50:46.679Z,11.17
2018-07-11T08:53:27.344Z,10.23
2018-07-11T08:58:10.953Z,8.40
2018-07-11T09:02:51.596Z,7.53
2018-07-11T09:05:32.684Z,7.77
2018-07-11T09:11:14.699Z,7.83
2018-07-11T09:14:27.177Z,7.60
2018-07-11T09:18:11.287Z,6.47
2018-07-11T09:21:04.828Z,6.03
2018-07-11T09:24:46.585Z,9.47
2018-07-11T09:27:15.104Z,6.00
2018-07-11T09:29:44.175Z,8.33
2018-07-11T09:32:13.155Z,7.53
2018-07-11T09:34:41.720Z,7.03
2018-07-11T09:37:10.134Z,6.13
2018-07-11T09:39:38.409Z,8.17
2018-07-11T09:42:06.914Z,6.73
2018-07-11T09:44:35.337Z,7.87
2018-07-11T09:47:09.007Z,7.37
2018-07-11T09:49:37.297Z,6.73
2018-07-11T09:52:05.649Z,7.67
2018-07-11T09:54:33.971Z,6.60
2018-07-11T09:57:02.384Z,6.87
2018-07-11T09:59:30.627Z,14.53
2018-07-11T10:01:58.892Z,8.23
2018-07-11T10:04:27.413Z,7.97
2018-07-11T10:06:55.677Z,8.37
2018-07-11T10:09:23.957Z,7.40
2018-07-11T10:11:52.800Z,10.27
2018-07-11T10:14:21.386Z,8.03
2018-07-11T10:16:49.646Z,8.93
2018-07-11T10:19:17.956Z,10.03
2018-07-11T10:21:46.336Z,10.10
2018-07-11T10:24:14.918Z,7.37
2018-07-11T10:26:43.194Z,8.10
2018-07-11T10:29:11.492Z,9.73
2018-07-11T10:31:39.779Z,9.00
2018-07-11T10:34:08.059Z,8.80
2018-07-11T10:36:36.435Z,9.80
2018-07-11T10:39:05.522Z,8.37
2018-07-11T10:41:33.983Z,8.90
2018-07-11T10:44:02.257Z,8.93
2018-07-11T10:46:30.534Z,8.27
2018-07-11T10:48:58.827Z,8.63
2018-07-11T10:51:27.131Z,8.47
2018-07-11T10:53:55.491Z,11.57
2018-07-11T10:56:23.776Z,10.30
2018-07-11T10:58:52.040Z,9.13
2018-07-11T11:01:20.548Z,9.37
2018-07-11T11:03:48.739Z,12.43
2018-07-11T11:06:17.029Z,9.70
2018-07-11T11:08:45.466Z,9.70
2018-07-11T11:11:13.779Z,13.47
2018-07-11T11:13:42.048Z,9.73
2018-07-11T11:16:10.407Z,10.20
2018-07-11T11:18:38.662Z,10.43
2018-07-11T11:21:06.954Z,10.43
2018-07-11T11:23:35.231Z,12.87
2018-07-11T11:26:03.493Z,10.07
2018-07-11T11:28:31.805Z,11.20
2018-07-11T11:31:00.124Z,10.10
2018-07-11T11:33:28.435Z,11.47
2018-07-11T11:35:56.708Z,10.93
2018-07-11T11:38:25.016Z,11.00
2018-07-11T11:40:53.304Z,11.30
2018-07-11T11:43:21.618Z,11.90
2018-07-11T11:45:49.985Z,11.67
2018-07-11T11:48:18.309Z,11.00
2018-07-11T11:50:46.670Z,10.80
2018-07-11T11:53:15.034Z,11.23
2018-07-11T11:55:43.324Z,11.23
2018-07-11T11:58:11.641Z,11.20
2018-07-11T12:00:40.045Z,11.13
2018-07-11T12:03:08.292Z,11.50
2018-07-11T12:05:36.696Z,12.73
2018-07-11T12:08:05.018Z,13.87
2018-07-11T12:10:33.285Z,11.87
2018-07-11T12:13:01.563Z,11.87
2018-07-11T12:15:29.870Z,12.47
2018-07-11T12:17:58.189Z,12.37
2018-07-11T12:20:26.492Z,11.80
2018-07-11T12:22:54.861Z,12.43
2018-07-11T12:25:23.213Z,12.37
2018-07-11T12:27:51.592Z,12.77
2018-07-11T12:30:19.899Z,12.40
2018-07-11T12:32:48.313Z,12.03
2018-07-11T12:35:16.600Z,11.90
2018-07-11T12:37:45.189Z,13.10
2018-07-11T12:40:13.504Z,11.30
2018-07-11T12:42:41.771Z,10.43
2018-07-11T12:45:10.088Z,11.13
2018-07-11T12:47:43.617Z,9.97
2018-07-11T12:50:11.952Z,10.97
2018-07-11T12:52:40.253Z,9.97
2018-07-11T12:55:08.552Z,11.73
2018-07-11T12:57:36.871Z,9.33
2018-07-11T13:00:05.519Z,7.83
2018-07-11T13:02:33.899Z,9.40
2018-07-11T13:05:02.657Z,9.87
2018-07-11T13:07:31.133Z,9.57
2018-07-11T13:09:59.517Z,10.17
2018-07-11T13:12:27.827Z,9.63
2018-07-11T13:14:56.205Z,9.40
2018-07-11T13:17:24.551Z,10.07
2018-07-11T13:19:52.891Z,8.63
2018-07-11T13:22:21.136Z,8.60
2018-07-11T13:24:49.452Z,8.47
2018-07-11T13:27:17.716Z,8.53
2018-07-11T13:29:46.003Z,9.87
2018-07-11T13:32:14.256Z,8.93
2018-07-11T13:34:43.417Z,8.07
2018-07-11T13:37:11.745Z,7.63
2018-07-11T13:39:40.016Z,8.67
2018-07-11T13:42:08.277Z,7.73
2018-07-11T13:44:37.030Z,8.57
2018-07-11T13:47:10.702Z,7.37
2018-07-11T13:49:39.006Z,6.87
2018-07-11T13:52:07.305Z,7.93
2018-07-11T13:54:35.597Z,8.00
2018-07-11T13:57:04.262Z,8.27
2018-07-11T13:59:32.623Z,7.73
2018-07-11T14:02:00.900Z,8.03
2018-07-11T14:04:29.264Z,7.90
2018-07-11T14:06:57.885Z,8.70
2018-07-11T14:09:26.162Z,8.10
2018-07-11T14:11:54.580Z,8.87
2018-07-11T14:14:22.850Z,8.37
2018-07-11T14:16:51.285Z,9.00
2018-07-11T14:19:19.562Z,9.70
2018-07-11T14:21:47.847Z,10.30
2018-07-11T14:24:16.116Z,9.60
2018-07-11T14:26:44.898Z,14.43
2018-07-11T14:29:13.445Z,10.53
2018-07-11T14:31:41.792Z,12.50
2018-07-11T14:34:11.035Z,11.10
2018-07-11T14:36:39.321Z,11.73
2018-07-11T14:39:08.117Z,11.33
2018-07-11T14:41:36.435Z,12.00
2018-07-11T14:44:04.771Z,12.40
2018-07-11T14:46:34.616Z,12.97
2018-07-11T14:49:03.217Z,10.83
2018-07-11T14:51:31.583Z,12.33
2018-07-11T14:53:59.825Z,12.47
2018-07-11T14:56:28.127Z,12.10
2018-07-11T14:58:57.631Z,11.90
2018-07-11T15:01:26.019Z,13.30
2018-07-11T15:03:54.408Z,15.43
2018-07-11T15:06:23.523Z,13.00
2018-07-11T15:08:52.493Z,11.87
2018-07-11T15:11:21.107Z,12.30
2018-07-11T15:13:49.545Z,11.90
2018-07-11T15:16:18.093Z,33.77
2018-07-11T15:18:46.619Z,11.30
2018-07-11T15:21:15.091Z,11.53
2018-07-11T15:23:43.355Z,15.47
2018-07-11T15:26:11.666Z,12.23
2018-07-11T15:28:41.053Z,12.70
2018-07-11T15:31:09.341Z,13.53
2018-07-11T15:33:37.753Z,12.83
2018-07-11T15:36:06.117Z,13.03
2018-07-11T15:38:34.532Z,13.10
2018-07-11T15:41:03.007Z,13.67
2018-07-11T15:43:31.316Z,14.07
2018-07-11T15:45:59.826Z,13.37
2018-07-11T15:48:28.585Z,13.73
2018-07-11T15:50:57.069Z,13.17
2018-07-11T15:53:26.995Z,14.03
2018-07-11T15:55:55.325Z,27.10
2018-07-11T15:58:26.570Z,26.27
2018-07-11T16:00:55.523Z,14.53
2018-07-11T16:03:25.884Z,12.10
2018-07-11T16:05:55.303Z,12.67
2018-07-11T16:08:23.573Z,14.00
2018-07-11T16:10:54.308Z,13.30
2018-07-11T16:13:22.660Z,13.07
2018-07-11T16:15:51.002Z,13.27
2018-07-11T16:18:19.343Z,12.60
2018-07-11T16:20:47.653Z,13.17
2018-07-11T16:23:15.978Z,12.83
2018-07-11T16:25:44.722Z,12.30
2018-07-11T16:28:13.077Z,12.17
2018-07-11T16:30:41.354Z,12.00
2018-07-11T16:33:09.716Z,11.87
2018-07-11T16:35:38.067Z,11.10
2018-07-11T16:38:06.364Z,11.40
2018-07-11T16:40:34.691Z,11.93
2018-07-11T16:43:03.523Z,12.13
2018-07-11T16:45:31.875Z,13.87
2018-07-11T16:48:00.721Z,13.73
2018-07-11T16:50:29.035Z,13.33
2018-07-11T16:52:57.762Z,13.70
2018-07-11T16:55:27.105Z,13.67
2018-07-11T16:57:55.725Z,13.90
2018-07-11T17:00:28.133Z,13.17
2018-07-11T17:03:02.463Z,13.47
2018-07-11T17:05:38.157Z,12.83
2018-07-11T17:08:06.703Z,13.43
2018-07-11T17:10:36.215Z,13.67
2018-07-11T17:13:10.169Z,13.97
2018-07-11T17:15:39.063Z,14.20
2018-07-11T17:18:07.659Z,13.20
2018-07-11T17:20:35.960Z,13.33
2018-07-11T17:23:05.861Z,13.07
2018-07-11T17:25:42.124Z,13.17
2018-07-11T17:28:10.502Z,13.10
2018-07-11T17:30:45.491Z,11.77
2018-07-11T17:33:14.230Z,11.93
2018-07-11T17:35:48.690Z,12.53
2018-07-11T17:38:17.705Z,10.80
2018-07-11T17:40:47.470Z,11.43
2018-07-11T17:43:17.479Z,11.27
2018-07-11T17:45:45.775Z,10.87
2018-07-11T17:48:48.226Z,10.17
2018-07-11T17:51:25.669Z,10.40
2018-07-11T17:53:56.984Z,10.87
2018-07-11T17:56:37.472Z,10.83
2018-07-11T17:59:06.041Z,10.20
2018-07-11T18:01:39.483Z,7.93
2018-07-11T18:04:11.770Z,8.07
2018-07-11T18:06:50.182Z,10.97
2018-07-11T18:09:22.225Z,7.07
2018-07-11T18:11:54.664Z,11.37
2018-07-11T18:15:34.424Z,11.20
2018-07-11T18:18:19.406Z,7.90
2018-07-11T18:23:05.600Z,8.17
2018-07-11T18:28:16.797Z,7.27
2018-07-11T18:30:55.529Z,6.50
2018-07-11T18:33:34.975Z,8.57
2018-07-11T18:36:45.127Z,6.90
2018-07-11T18:39:21.678Z,8.17
2018-07-11T18:42:01.435Z,8.57
2018-07-11T18:44:41.835Z,7.13
2018-07-11T18:49:22.624Z,6.77
2018-07-11T18:52:30.521Z,6.30
2018-07-11T18:55:06.788Z,6.53
2018-07-11T18:57:41.642Z,7.73
2018-07-11T19:00:17.745Z,7.60
2018-07-11T19:02:59.051Z,8.10
2018-07-11T19:05:32.955Z,7.00
2018-07-11T19:08:38.552Z,7.43
2018-07-11T19:11:20.276Z,7.70
2018-07-11T19:13:51.764Z,8.07
2018-07-11T19:16:33.138Z,7.03
2018-07-11T19:19:09.806Z,6.70
2018-07-11T19:22:17.124Z,7.40
2018-07-11T19:24:55.361Z,6.80
2018-07-11T19:27:33.209Z,7.10
2018-07-11T19:30:12.507Z,7.43
2018-07-11T19:34:55.755Z,7.40
2018-07-11T19:37:32.569Z,6.50
2018-07-11T19:40:11.249Z,6.93
2018-07-11T19:44:55.956Z,6.77
2018-07-11T19:47:35.907Z,6.07
2018-07-11T19:54:23.290Z,7.20
2018-07-11T19:56:51.608Z,5.90
2018-07-11T19:59:20.000Z,6.87
2018-07-11T20:01:48.387Z,6.47
2018-07-11T20:04:16.717Z,6.40
2018-07-11T20:06:45.114Z,6.90
2018-07-11T20:09:13.432Z,6.67
2018-07-11T20:11:41.788Z,6.27
2018-07-11T20:14:10.141Z,7.53
2018-07-11T20:16:38.455Z,7.00
2018-07-11T20:19:06.747Z,6.70
2018-07-11T20:21:35.063Z,6.87
2018-07-11T20:24:03.370Z,6.87
2018-07-11T20:26:31.940Z,6.40
2018-07-11T20:29:00.230Z,7.23
2018-07-11T20:31:28.637Z,9.63
2018-07-11T20:33:56.987Z,8.00
2018-07-11T20:36:25.277Z,7.27
2018-07-11T20:38:53.608Z,8.40
2018-07-11T20:41:21.957Z,8.97
2018-07-11T20:43:50.309Z,22.03
2018-07-11T20:46:18.694Z,8.83
2018-07-11T20:48:46.935Z,8.00
2018-07-11T20:51:15.254Z,7.90
2018-07-11T20:53:43.565Z,8.23
2018-07-11T20:56:11.925Z,8.37
2018-07-11T20:58:51.412Z,8.03
2018-07-11T21:01:30.954Z,8.53
2018-07-11T21:04:15.833Z,7.20
2018-07-11T21:06:58.110Z,7.17
2018-07-11T21:09:37.707Z,7.70
2018-07-11T21:15:25.123Z,7.47
2018-07-11T21:17:59.922Z,8.00
2018-07-11T21:20:28.176Z,9.23
2018-07-11T21:22:56.436Z,8.33
2018-07-11T21:25:24.766Z,7.40
2018-07-11T21:27:53.090Z,8.77
2018-07-11T21:30:21.336Z,8.87
2018-07-11T21:32:49.690Z,9.20
2018-07-11T21:35:17.954Z,9.33
2018-07-11T21:37:46.190Z,9.37
2018-07-11T21:40:14.480Z,9.70
2018-07-11T21:42:42.726Z,12.50
2018-07-11T21:45:11.011Z,8.53
2018-07-11T21:47:39.272Z,8.90
2018-07-11T21:50:07.538Z,8.80
2018-07-11T21:52:36.025Z,10.20
2018-07-11T21:55:04.271Z,9.23
2018-07-11T21:57:32.544Z,9.97
2018-07-11T22:00:00.808Z,10.67
2018-07-11T22:02:29.171Z,11.10
2018-07-11T22:04:57.408Z,10.13
2018-07-11T22:07:25.634Z,9.40
2018-07-11T22:09:53.903Z,10.43
2018-07-11T22:12:22.227Z,10.37
2018-07-11T22:14:50.487Z,11.93
2018-07-11T22:17:30.090Z,10.73
2018-07-11T22:19:57.373Z,11.80
2018-07-11T22:22:24.636Z,11.33
2018-07-11T22:24:51.920Z,11.43
2018-07-11T22:27:19.205Z,11.97
2018-07-11T22:29:46.493Z,12.07
2018-07-11T22:32:13.752Z,12.07
2018-07-11T22:34:41.010Z,14.07
2018-07-11T22:37:08.275Z,11.17
2018-07-11T22:39:35.560Z,16.23
2018-07-11T22:42:02.841Z,17.40
2018-07-11T22:44:30.116Z,11.83
2018-07-11T22:46:57.484Z,11.83
2018-07-11T22:49:24.756Z,10.37
2018-07-11T22:51:52.040Z,11.90
2018-07-11T22:54:19.290Z,11.80
2018-07-11T22:56:46.563Z,13.10
2018-07-11T22:59:13.822Z,13.43
2018-07-11T23:01:41.097Z,13.77
2018-07-11T23:04:08.366Z,13.93
2018-07-11T23:06:35.645Z,15.53
2018-07-11T23:09:03.018Z,11.53
2018-07-11T23:11:30.267Z,14.80
2018-07-11T23:13:57.547Z,12.13
2018-07-11T23:16:24.822Z,13.40
2018-07-11T23:18:52.095Z,14.53
2018-07-11T23:21:19.382Z,13.23
2018-07-11T23:23:46.802Z,13.20
2018-07-11T23:26:14.092Z,14.57
2018-07-11T23:28:41.375Z,14.63
2018-07-11T23:31:08.670Z,13.83
2018-07-11T23:33:35.988Z,12.50
2018-07-11T23:36:03.264Z,14.43
2018-07-11T23:38:30.539Z,11.97
2018-07-11T23:40:57.815Z,15.00
2018-07-11T23:43:25.268Z,14.30
2018-07-11T23:45:52.543Z,13.87
2018-07-11T23:48:19.847Z,17.50
2018-07-11T23:50:47.108Z,13.77
2018-07-11T23:53:14.366Z,13.80
2018-07-11T23:55:41.650Z,15.47
2018-07-11T23:58:08.925Z,12.53
